sensor_id;sensor_type;location;lat;lon;timestamp;P1;durP1;ratioP1;P2;durP2;ratioP2
26536;SDS011;14204;51.262;5.488;2023-08-01T00:01:01;2.30;;;2.10;;
26536;SDS011;14204;51.262;5.488;2023-08-01T00:03:28;3.20;;;2.88;;
26536;SDS011;14204;51.262;5.488;2023-08-01T00:05:53;3.10;;;2.85;;
26536;SDS011;14204;51.262;5.488;2023-08-01T00:08:20;3.35;;;2.70;;
26536;SDS011;14204;51.262;5.488;2023-08-01T00:10:46;3.17;;;2.88;;
26536;SDS011;14204;51.262;5.488;2023-08-01T00:13:12;3.25;;;2.95;;
26536;SDS011;14204;51.262;5.488;2023-08-01T00:15:38;5.05;;;3.75;;
26536;SDS011;14204;51.262;5.488;2023-08-01T00:18:03;4.95;;;3.70;;
26536;SDS011;14204;51.262;5.488;2023-08-01T00:20:29;4.85;;;3.38;;
26536;SDS011;14204;51.262;5.488;2023-08-01T00:22:55;3.78;;;3.42;;
26536;SDS011;14204;51.262;5.488;2023-08-01T00:25:21;4.88;;;3.83;;
26536;SDS011;14204;51.262;5.488;2023-08-01T00:27:47;3.67;;;3.38;;
26536;SDS011;14204;51.262;5.488;2023-08-01T00:30:12;5.30;;;3.70;;
26536;SDS011;14204;51.262;5.488;2023-08-01T00:32:38;4.40;;;3.65;;
26536;SDS011;14204;51.262;5.488;2023-08-01T00:35:04;4.90;;;4.40;;
26536;SDS011;14204;51.262;5.488;2023-08-01T00:37:30;5.05;;;4.65;;
26536;SDS011;14204;51.262;5.488;2023-08-01T00:39:56;7.07;;;5.28;;
26536;SDS011;14204;51.262;5.488;2023-08-01T00:42:21;8.55;;;5.85;;
26536;SDS011;14204;51.262;5.488;2023-08-01T00:44:47;8.65;;;4.97;;
26536;SDS011;14204;51.262;5.488;2023-08-01T00:47:14;6.00;;;5.40;;
26536;SDS011;14204;51.262;5.488;2023-08-01T00:49:40;6.60;;;6.00;;
26536;SDS011;14204;51.262;5.488;2023-08-01T00:52:07;7.57;;;6.65;;
26536;SDS011;14204;51.262;5.488;2023-08-01T00:54:33;7.05;;;6.30;;
26536;SDS011;14204;51.262;5.488;2023-08-01T00:57:04;7.95;;;6.85;;
26536;SDS011;14204;51.262;5.488;2023-08-01T00:59:30;7.15;;;6.45;;
26536;SDS011;14204;51.262;5.488;2023-08-01T01:01:57;7.45;;;6.32;;
26536;SDS011;14204;51.262;5.488;2023-08-01T01:04:24;8.48;;;6.10;;
26536;SDS011;14204;51.262;5.488;2023-08-01T01:06:53;7.45;;;6.68;;
26536;SDS011;14204;51.262;5.488;2023-08-01T01:09:27;7.82;;;6.68;;
26536;SDS011;14204;51.262;5.488;2023-08-01T01:11:53;8.90;;;6.65;;
26536;SDS011;14204;51.262;5.488;2023-08-01T01:14:19;7.93;;;6.78;;
26536;SDS011;14204;51.262;5.488;2023-08-01T01:16:45;9.60;;;6.90;;
26536;SDS011;14204;51.262;5.488;2023-08-01T01:19:10;10.48;;;7.15;;
26536;SDS011;14204;51.262;5.488;2023-08-01T01:21:37;12.05;;;8.07;;
26536;SDS011;14204;51.262;5.488;2023-08-01T01:24:05;10.82;;;8.05;;
26536;SDS011;14204;51.262;5.488;2023-08-01T01:26:34;9.52;;;7.57;;
26536;SDS011;14204;51.262;5.488;2023-08-01T01:29:02;11.23;;;7.55;;
26536;SDS011;14204;51.262;5.488;2023-08-01T01:31:30;10.77;;;7.43;;
26536;SDS011;14204;51.262;5.488;2023-08-01T01:33:59;13.07;;;8.23;;
26536;SDS011;14204;51.262;5.488;2023-08-01T01:36:25;11.40;;;7.13;;
26536;SDS011;14204;51.262;5.488;2023-08-01T01:38:51;11.73;;;7.53;;
26536;SDS011;14204;51.262;5.488;2023-08-01T01:41:17;8.68;;;7.25;;
26536;SDS011;14204;51.262;5.488;2023-08-01T01:43:42;11.32;;;7.60;;
26536;SDS011;14204;51.262;5.488;2023-08-01T01:46:09;12.63;;;7.38;;
26536;SDS011;14204;51.262;5.488;2023-08-01T01:48:35;13.93;;;8.00;;
26536;SDS011;14204;51.262;5.488;2023-08-01T01:51:00;11.80;;;8.00;;
26536;SDS011;14204;51.262;5.488;2023-08-01T01:53:26;13.27;;;8.30;;
26536;SDS011;14204;51.262;5.488;2023-08-01T01:55:52;13.65;;;9.32;;
26536;SDS011;14204;51.262;5.488;2023-08-01T01:58:18;12.25;;;8.90;;
26536;SDS011;14204;51.262;5.488;2023-08-01T02:00:44;15.95;;;11.38;;
26536;SDS011;14204;51.262;5.488;2023-08-01T02:03:09;18.00;;;12.75;;
26536;SDS011;14204;51.262;5.488;2023-08-01T02:05:41;15.82;;;12.48;;
26536;SDS011;14204;51.262;5.488;2023-08-01T02:08:07;15.73;;;12.13;;
26536;SDS011;14204;51.262;5.488;2023-08-01T02:10:33;20.65;;;15.00;;
26536;SDS011;14204;51.262;5.488;2023-08-01T02:12:58;23.38;;;15.20;;
26536;SDS011;14204;51.262;5.488;2023-08-01T02:15:24;20.40;;;16.75;;
26536;SDS011;14204;51.262;5.488;2023-08-01T02:17:50;23.38;;;16.75;;
26536;SDS011;14204;51.262;5.488;2023-08-01T02:20:15;21.15;;;17.00;;
26536;SDS011;14204;51.262;5.488;2023-08-01T02:22:41;24.20;;;18.27;;
26536;SDS011;14204;51.262;5.488;2023-08-01T02:25:07;24.77;;;17.98;;
26536;SDS011;14204;51.262;5.488;2023-08-01T02:27:33;24.80;;;18.13;;
26536;SDS011;14204;51.262;5.488;2023-08-01T02:29:58;24.92;;;18.50;;
26536;SDS011;14204;51.262;5.488;2023-08-01T02:32:24;26.38;;;18.83;;
26536;SDS011;14204;51.262;5.488;2023-08-01T02:34:50;25.70;;;19.20;;
26536;SDS011;14204;51.262;5.488;2023-08-01T02:37:16;31.63;;;19.67;;
26536;SDS011;14204;51.262;5.488;2023-08-01T02:39:41;26.60;;;20.23;;
26536;SDS011;14204;51.262;5.488;2023-08-01T02:42:07;32.50;;;18.77;;
26536;SDS011;14204;51.262;5.488;2023-08-01T02:44:33;29.83;;;19.45;;
26536;SDS011;14204;51.262;5.488;2023-08-01T02:46:59;28.40;;;19.75;;
26536;SDS011;14204;51.262;5.488;2023-08-01T02:49:24;25.90;;;19.58;;
26536;SDS011;14204;51.262;5.488;2023-08-01T02:51:50;28.13;;;18.35;;
26536;SDS011;14204;51.262;5.488;2023-08-01T02:54:16;25.52;;;18.05;;
26536;SDS011;14204;51.262;5.488;2023-08-01T02:56:41;34.05;;;20.50;;
26536;SDS011;14204;51.262;5.488;2023-08-01T02:59:07;28.52;;;20.15;;
26536;SDS011;14204;51.262;5.488;2023-08-01T03:01:34;30.80;;;19.63;;
26536;SDS011;14204;51.262;5.488;2023-08-01T03:04:04;31.80;;;20.10;;
26536;SDS011;14204;51.262;5.488;2023-08-01T03:06:31;34.20;;;20.88;;
26536;SDS011;14204;51.262;5.488;2023-08-01T03:08:58;33.00;;;20.33;;
26536;SDS011;14204;51.262;5.488;2023-08-01T03:11:24;29.00;;;17.35;;
26536;SDS011;14204;51.262;5.488;2023-08-01T03:13:50;28.38;;;18.52;;
26536;SDS011;14204;51.262;5.488;2023-08-01T03:16:16;25.88;;;18.05;;
26536;SDS011;14204;51.262;5.488;2023-08-01T03:18:42;29.67;;;18.83;;
26536;SDS011;14204;51.262;5.488;2023-08-01T03:21:08;29.65;;;18.85;;
26536;SDS011;14204;51.262;5.488;2023-08-01T03:23:34;28.08;;;18.23;;
26536;SDS011;14204;51.262;5.488;2023-08-01T03:25:59;29.63;;;18.27;;
26536;SDS011;14204;51.262;5.488;2023-08-01T03:28:26;27.73;;;18.05;;
26536;SDS011;14204;51.262;5.488;2023-08-01T03:30:52;27.80;;;19.60;;
26536;SDS011;14204;51.262;5.488;2023-08-01T03:33:19;33.03;;;20.77;;
26536;SDS011;14204;51.262;5.488;2023-08-01T03:35:45;33.65;;;18.42;;
26536;SDS011;14204;51.262;5.488;2023-08-01T03:38:11;29.20;;;19.27;;
26536;SDS011;14204;51.262;5.488;2023-08-01T03:40:37;28.55;;;18.83;;
26536;SDS011;14204;51.262;5.488;2023-08-01T03:43:02;32.83;;;18.42;;
26536;SDS011;14204;51.262;5.488;2023-08-01T03:45:28;26.92;;;18.33;;
26536;SDS011;14204;51.262;5.488;2023-08-01T03:47:54;27.40;;;16.65;;
26536;SDS011;14204;51.262;5.488;2023-08-01T03:50:20;30.73;;;17.33;;
26536;SDS011;14204;51.262;5.488;2023-08-01T03:52:46;27.38;;;16.83;;
26536;SDS011;14204;51.262;5.488;2023-08-01T03:55:11;21.63;;;15.30;;
26536;SDS011;14204;51.262;5.488;2023-08-01T03:57:37;26.13;;;15.48;;
26536;SDS011;14204;51.262;5.488;2023-08-01T04:00:05;28.83;;;16.95;;
26536;SDS011;14204;51.262;5.488;2023-08-01T04:02:31;29.25;;;17.27;;
26536;SDS011;14204;51.262;5.488;2023-08-01T04:04:57;26.05;;;16.02;;
26536;SDS011;14204;51.262;5.488;2023-08-01T04:07:23;27.42;;;15.10;;
26536;SDS011;14204;51.262;5.488;2023-08-01T04:09:48;29.98;;;15.63;;
26536;SDS011;14204;51.262;5.488;2023-08-01T04:12:15;23.17;;;14.82;;
26536;SDS011;14204;51.262;5.488;2023-08-01T04:14:40;21.88;;;14.27;;
26536;SDS011;14204;51.262;5.488;2023-08-01T04:17:07;24.30;;;13.75;;
26536;SDS011;14204;51.262;5.488;2023-08-01T04:19:32;21.83;;;13.90;;
26536;SDS011;14204;51.262;5.488;2023-08-01T04:21:58;23.55;;;14.63;;
26536;SDS011;14204;51.262;5.488;2023-08-01T04:24:24;27.85;;;13.82;;
26536;SDS011;14204;51.262;5.488;2023-08-01T04:26:50;19.20;;;13.43;;
26536;SDS011;14204;51.262;5.488;2023-08-01T04:29:17;20.17;;;14.63;;
26536;SDS011;14204;51.262;5.488;2023-08-01T04:31:43;26.00;;;14.30;;
26536;SDS011;14204;51.262;5.488;2023-08-01T04:34:09;26.33;;;15.18;;
26536;SDS011;14204;51.262;5.488;2023-08-01T04:36:34;22.33;;;14.57;;
26536;SDS011;14204;51.262;5.488;2023-08-01T04:39:00;23.42;;;14.63;;
26536;SDS011;14204;51.262;5.488;2023-08-01T04:41:25;27.63;;;15.10;;
26536;SDS011;14204;51.262;5.488;2023-08-01T04:43:51;24.23;;;13.82;;
26536;SDS011;14204;51.262;5.488;2023-08-01T04:46:17;28.88;;;15.93;;
26536;SDS011;14204;51.262;5.488;2023-08-01T04:48:42;20.75;;;13.88;;
26536;SDS011;14204;51.262;5.488;2023-08-01T04:51:08;22.25;;;12.98;;
26536;SDS011;14204;51.262;5.488;2023-08-01T04:53:34;21.63;;;13.18;;
26536;SDS011;14204;51.262;5.488;2023-08-01T04:55:59;22.08;;;13.38;;
26536;SDS011;14204;51.262;5.488;2023-08-01T04:58:25;26.10;;;14.10;;
26536;SDS011;14204;51.262;5.488;2023-08-01T05:00:51;22.75;;;13.45;;
26536;SDS011;14204;51.262;5.488;2023-08-01T05:03:17;27.65;;;15.27;;
26536;SDS011;14204;51.262;5.488;2023-08-01T05:05:43;24.05;;;13.55;;
26536;SDS011;14204;51.262;5.488;2023-08-01T05:08:08;21.98;;;14.13;;
26536;SDS011;14204;51.262;5.488;2023-08-01T05:10:34;22.05;;;14.25;;
26536;SDS011;14204;51.262;5.488;2023-08-01T05:13:00;22.55;;;13.25;;
26536;SDS011;14204;51.262;5.488;2023-08-01T05:15:25;23.17;;;12.88;;
26536;SDS011;14204;51.262;5.488;2023-08-01T05:17:52;26.83;;;14.02;;
26536;SDS011;14204;51.262;5.488;2023-08-01T05:20:18;26.80;;;14.68;;
26536;SDS011;14204;51.262;5.488;2023-08-01T05:22:44;23.38;;;14.55;;
26536;SDS011;14204;51.262;5.488;2023-08-01T05:25:09;25.45;;;13.40;;
26536;SDS011;14204;51.262;5.488;2023-08-01T05:27:35;23.25;;;13.18;;
26536;SDS011;14204;51.262;5.488;2023-08-01T05:30:01;26.00;;;14.63;;
26536;SDS011;14204;51.262;5.488;2023-08-01T05:32:27;27.90;;;14.57;;
26536;SDS011;14204;51.262;5.488;2023-08-01T05:34:52;33.38;;;15.63;;
26536;SDS011;14204;51.262;5.488;2023-08-01T05:37:18;55.30;;;20.05;;
26536;SDS011;14204;51.262;5.488;2023-08-01T05:39:44;41.33;;;17.55;;
26536;SDS011;14204;51.262;5.488;2023-08-01T05:42:09;29.00;;;15.38;;
26536;SDS011;14204;51.262;5.488;2023-08-01T05:44:36;27.92;;;15.73;;
26536;SDS011;14204;51.262;5.488;2023-08-01T05:47:02;28.63;;;15.15;;
26536;SDS011;14204;51.262;5.488;2023-08-01T05:49:28;27.58;;;16.40;;
26536;SDS011;14204;51.262;5.488;2023-08-01T05:51:54;26.13;;;16.00;;
26536;SDS011;14204;51.262;5.488;2023-08-01T05:54:20;28.02;;;15.52;;
26536;SDS011;14204;51.262;5.488;2023-08-01T05:56:46;26.88;;;15.43;;
26536;SDS011;14204;51.262;5.488;2023-08-01T05:59:12;31.10;;;16.88;;
26536;SDS011;14204;51.262;5.488;2023-08-01T06:01:37;23.88;;;15.80;;
26536;SDS011;14204;51.262;5.488;2023-08-01T06:04:03;22.77;;;15.25;;
26536;SDS011;14204;51.262;5.488;2023-08-01T06:06:29;27.58;;;16.45;;
26536;SDS011;14204;51.262;5.488;2023-08-01T06:08:54;30.33;;;18.05;;
26536;SDS011;14204;51.262;5.488;2023-08-01T06:11:21;25.60;;;16.55;;
26536;SDS011;14204;51.262;5.488;2023-08-01T06:13:46;24.38;;;16.85;;
26536;SDS011;14204;51.262;5.488;2023-08-01T06:16:12;33.65;;;18.05;;
26536;SDS011;14204;51.262;5.488;2023-08-01T06:18:38;32.40;;;17.58;;
26536;SDS011;14204;51.262;5.488;2023-08-01T06:21:03;29.67;;;17.25;;
26536;SDS011;14204;51.262;5.488;2023-08-01T06:24:01;29.88;;;17.40;;
26536;SDS011;14204;51.262;5.488;2023-08-01T06:26:27;30.17;;;17.50;;
26536;SDS011;14204;51.262;5.488;2023-08-01T06:28:53;20.55;;;14.80;;
26536;SDS011;14204;51.262;5.488;2023-08-01T06:31:21;27.98;;;14.15;;
26536;SDS011;14204;51.262;5.488;2023-08-01T06:33:47;20.13;;;14.15;;
26536;SDS011;14204;51.262;5.488;2023-08-01T06:36:13;23.92;;;14.20;;
26536;SDS011;14204;51.262;5.488;2023-08-01T06:38:39;29.00;;;14.68;;
26536;SDS011;14204;51.262;5.488;2023-08-01T06:41:04;27.38;;;16.42;;
26536;SDS011;14204;51.262;5.488;2023-08-01T06:43:30;22.30;;;14.18;;
26536;SDS011;14204;51.262;5.488;2023-08-01T06:45:56;18.30;;;12.80;;
26536;SDS011;14204;51.262;5.488;2023-08-01T06:48:21;18.85;;;13.15;;
26536;SDS011;14204;51.262;5.488;2023-08-01T06:50:47;19.80;;;14.23;;
26536;SDS011;14204;51.262;5.488;2023-08-01T06:53:13;22.08;;;13.25;;
26536;SDS011;14204;51.262;5.488;2023-08-01T06:55:38;25.60;;;14.25;;
26536;SDS011;14204;51.262;5.488;2023-08-01T06:58:05;23.02;;;15.07;;
26536;SDS011;14204;51.262;5.488;2023-08-01T07:00:30;20.63;;;14.15;;
26536;SDS011;14204;51.262;5.488;2023-08-01T07:02:57;23.27;;;14.02;;
26536;SDS011;14204;51.262;5.488;2023-08-01T07:05:22;26.45;;;15.35;;
26536;SDS011;14204;51.262;5.488;2023-08-01T07:07:48;22.48;;;14.48;;
26536;SDS011;14204;51.262;5.488;2023-08-01T07:10:14;20.50;;;14.18;;
26536;SDS011;14204;51.262;5.488;2023-08-01T07:12:40;21.80;;;13.25;;
26536;SDS011;14204;51.262;5.488;2023-08-01T07:15:06;27.50;;;12.95;;
26536;SDS011;14204;51.262;5.488;2023-08-01T07:21:02;17.10;;;10.85;;
26536;SDS011;14204;51.262;5.488;2023-08-01T07:23:29;15.43;;;10.93;;
26536;SDS011;14204;51.262;5.488;2023-08-01T07:25:56;20.02;;;11.02;;
26536;SDS011;14204;51.262;5.488;2023-08-01T07:28:21;18.92;;;10.90;;
26536;SDS011;14204;51.262;5.488;2023-08-01T07:30:47;22.75;;;10.52;;
26536;SDS011;14204;51.262;5.488;2023-08-01T07:33:13;20.92;;;10.45;;
26536;SDS011;14204;51.262;5.488;2023-08-01T07:35:39;17.15;;;9.80;;
26536;SDS011;14204;51.262;5.488;2023-08-01T07:38:04;16.33;;;10.00;;
26536;SDS011;14204;51.262;5.488;2023-08-01T07:40:30;18.90;;;10.75;;
26536;SDS011;14204;51.262;5.488;2023-08-01T07:42:56;16.70;;;10.00;;
26536;SDS011;14204;51.262;5.488;2023-08-01T07:45:24;15.18;;;9.45;;
26536;SDS011;14204;51.262;5.488;2023-08-01T07:47:50;15.80;;;10.07;;
26536;SDS011;14204;51.262;5.488;2023-08-01T07:50:16;21.90;;;10.95;;
26536;SDS011;14204;51.262;5.488;2023-08-01T07:52:42;18.73;;;9.32;;
26536;SDS011;14204;51.262;5.488;2023-08-01T07:55:08;24.50;;;10.13;;
26536;SDS011;14204;51.262;5.488;2023-08-01T07:57:34;19.98;;;10.32;;
26536;SDS011;14204;51.262;5.488;2023-08-01T07:59:59;13.27;;;10.20;;
26536;SDS011;14204;51.262;5.488;2023-08-01T08:02:25;110.00;;;23.15;;
26536;SDS011;14204;51.262;5.488;2023-08-01T08:04:51;25.35;;;10.85;;
26536;SDS011;14204;51.262;5.488;2023-08-01T08:07:17;25.95;;;11.85;;
26536;SDS011;14204;51.262;5.488;2023-08-01T08:09:43;135.30;;;26.08;;
26536;SDS011;14204;51.262;5.488;2023-08-01T08:12:08;29.42;;;12.25;;
26536;SDS011;14204;51.262;5.488;2023-08-01T08:14:34;20.92;;;10.40;;
26536;SDS011;14204;51.262;5.488;2023-08-01T08:17:00;15.52;;;8.73;;
26536;SDS011;14204;51.262;5.488;2023-08-01T08:19:25;12.40;;;7.47;;
26536;SDS011;14204;51.262;5.488;2023-08-01T08:21:51;12.38;;;7.53;;
26536;SDS011;14204;51.262;5.488;2023-08-01T08:24:17;61.10;;;14.60;;
26536;SDS011;14204;51.262;5.488;2023-08-01T08:26:42;135.75;;;23.45;;
26536;SDS011;14204;51.262;5.488;2023-08-01T08:29:10;22.88;;;7.80;;
26536;SDS011;14204;51.262;5.488;2023-08-01T08:31:36;15.35;;;7.03;;
26536;SDS011;14204;51.262;5.488;2023-08-01T08:34:02;14.18;;;7.88;;
26536;SDS011;14204;51.262;5.488;2023-08-01T08:36:27;10.60;;;7.15;;
26536;SDS011;14204;51.262;5.488;2023-08-01T08:38:53;14.57;;;7.63;;
26536;SDS011;14204;51.262;5.488;2023-08-01T08:41:21;12.95;;;7.57;;
26536;SDS011;14204;51.262;5.488;2023-08-01T08:43:49;67.22;;;14.02;;
26536;SDS011;14204;51.262;5.488;2023-08-01T08:46:16;25.15;;;8.88;;
26536;SDS011;14204;51.262;5.488;2023-08-01T08:48:43;13.23;;;7.45;;
26536;SDS011;14204;51.262;5.488;2023-08-01T08:51:11;12.80;;;6.93;;
26536;SDS011;14204;51.262;5.488;2023-08-01T08:53:38;9.73;;;6.60;;
26536;SDS011;14204;51.262;5.488;2023-08-01T08:56:06;11.43;;;7.00;;
26536;SDS011;14204;51.262;5.488;2023-08-01T08:58:33;12.65;;;7.13;;
26536;SDS011;14204;51.262;5.488;2023-08-01T09:01:01;9.00;;;7.45;;
26536;SDS011;14204;51.262;5.488;2023-08-01T09:03:28;12.30;;;7.18;;
26536;SDS011;14204;51.262;5.488;2023-08-01T09:05:56;13.63;;;7.38;;
26536;SDS011;14204;51.262;5.488;2023-08-01T09:08:29;13.25;;;7.00;;
26536;SDS011;14204;51.262;5.488;2023-08-01T09:10:59;12.80;;;6.82;;
26536;SDS011;14204;51.262;5.488;2023-08-01T09:13:25;13.65;;;6.60;;
26536;SDS011;14204;51.262;5.488;2023-08-01T09:15:51;13.90;;;6.78;;
26536;SDS011;14204;51.262;5.488;2023-08-01T09:18:17;11.70;;;5.82;;
26536;SDS011;14204;51.262;5.488;2023-08-01T09:20:44;14.93;;;6.47;;
26536;SDS011;14204;51.262;5.488;2023-08-01T09:23:11;19.15;;;6.45;;
26536;SDS011;14204;51.262;5.488;2023-08-01T09:25:37;9.68;;;6.07;;
26536;SDS011;14204;51.262;5.488;2023-08-01T09:28:14;9.93;;;5.35;;
26536;SDS011;14204;51.262;5.488;2023-08-01T09:30:45;8.18;;;5.00;;
26536;SDS011;14204;51.262;5.488;2023-08-01T09:33:11;9.73;;;6.25;;
26536;SDS011;14204;51.262;5.488;2023-08-01T09:35:40;10.93;;;5.63;;
26536;SDS011;14204;51.262;5.488;2023-08-01T09:38:06;11.00;;;5.60;;
26536;SDS011;14204;51.262;5.488;2023-08-01T09:40:38;11.77;;;6.25;;
26536;SDS011;14204;51.262;5.488;2023-08-01T09:43:04;15.13;;;6.53;;
26536;SDS011;14204;51.262;5.488;2023-08-01T09:45:30;13.77;;;7.25;;
26536;SDS011;14204;51.262;5.488;2023-08-01T09:47:56;15.10;;;7.93;;
26536;SDS011;14204;51.262;5.488;2023-08-01T09:50:22;10.48;;;7.22;;
26536;SDS011;14204;51.262;5.488;2023-08-01T09:52:49;11.13;;;7.05;;
26536;SDS011;14204;51.262;5.488;2023-08-01T09:55:38;11.73;;;7.53;;
26536;SDS011;14204;51.262;5.488;2023-08-01T09:58:05;8.90;;;7.43;;
26536;SDS011;14204;51.262;5.488;2023-08-01T10:00:33;17.17;;;8.30;;
26536;SDS011;14204;51.262;5.488;2023-08-01T10:02:59;56.25;;;14.18;;
26536;SDS011;14204;51.262;5.488;2023-08-01T10:05:26;91.50;;;18.42;;
26536;SDS011;14204;51.262;5.488;2023-08-01T10:07:55;136.30;;;22.83;;
26536;SDS011;14204;51.262;5.488;2023-08-01T10:10:24;23.88;;;9.70;;
26536;SDS011;14204;51.262;5.488;2023-08-01T10:12:50;21.27;;;9.77;;
26536;SDS011;14204;51.262;5.488;2023-08-01T10:15:19;17.65;;;10.93;;
26536;SDS011;14204;51.262;5.488;2023-08-01T10:17:45;11.50;;;8.98;;
26536;SDS011;14204;51.262;5.488;2023-08-01T10:20:11;15.95;;;9.15;;
26536;SDS011;14204;51.262;5.488;2023-08-01T10:22:39;12.43;;;8.95;;
26536;SDS011;14204;51.262;5.488;2023-08-01T10:25:07;10.15;;;8.40;;
26536;SDS011;14204;51.262;5.488;2023-08-01T10:27:35;9.40;;;6.85;;
26536;SDS011;14204;51.262;5.488;2023-08-01T10:30:02;8.85;;;6.57;;
26536;SDS011;14204;51.262;5.488;2023-08-01T10:32:33;10.02;;;6.18;;
26536;SDS011;14204;51.262;5.488;2023-08-01T10:35:00;10.15;;;6.95;;
26536;SDS011;14204;51.262;5.488;2023-08-01T10:37:26;7.18;;;6.47;;
26536;SDS011;14204;51.262;5.488;2023-08-01T10:40:03;9.25;;;6.13;;
26536;SDS011;14204;51.262;5.488;2023-08-01T10:42:42;7.93;;;5.70;;
26536;SDS011;14204;51.262;5.488;2023-08-01T10:45:24;8.65;;;4.53;;
26536;SDS011;14204;51.262;5.488;2023-08-01T10:50:17;9.73;;;4.15;;
26536;SDS011;14204;51.262;5.488;2023-08-01T10:52:43;9.88;;;4.68;;
26536;SDS011;14204;51.262;5.488;2023-08-01T10:55:11;9.30;;;4.50;;
26536;SDS011;14204;51.262;5.488;2023-08-01T10:57:38;11.48;;;5.20;;
26536;SDS011;14204;51.262;5.488;2023-08-01T11:00:14;8.98;;;5.20;;
26536;SDS011;14204;51.262;5.488;2023-08-01T11:02:48;11.82;;;5.63;;
26536;SDS011;14204;51.262;5.488;2023-08-01T11:05:15;25.02;;;7.38;;
26536;SDS011;14204;51.262;5.488;2023-08-01T11:07:41;12.25;;;5.70;;
26536;SDS011;14204;51.262;5.488;2023-08-01T11:12:37;9.73;;;5.38;;
26536;SDS011;14204;51.262;5.488;2023-08-01T11:15:14;57.22;;;10.32;;
26536;SDS011;14204;51.262;5.488;2023-08-01T11:17:40;63.38;;;11.48;;
26536;SDS011;14204;51.262;5.488;2023-08-01T11:20:08;19.30;;;6.32;;
26536;SDS011;14204;51.262;5.488;2023-08-01T11:22:35;9.57;;;4.53;;
26536;SDS011;14204;51.262;5.488;2023-08-01T11:25:14;13.45;;;5.43;;
26536;SDS011;14204;51.262;5.488;2023-08-01T11:27:40;9.80;;;4.25;;
26536;SDS011;14204;51.262;5.488;2023-08-01T11:30:06;10.77;;;4.75;;
26536;SDS011;14204;51.262;5.488;2023-08-01T11:32:33;12.65;;;4.45;;
26536;SDS011;14204;51.262;5.488;2023-08-01T11:35:02;9.75;;;4.07;;
26536;SDS011;14204;51.262;5.488;2023-08-01T11:37:29;12.85;;;4.28;;
26536;SDS011;14204;51.262;5.488;2023-08-01T11:39:55;11.15;;;4.30;;
26536;SDS011;14204;51.262;5.488;2023-08-01T11:42:21;10.15;;;4.07;;
26536;SDS011;14204;51.262;5.488;2023-08-01T11:44:47;10.63;;;4.22;;
26536;SDS011;14204;51.262;5.488;2023-08-01T11:47:17;8.52;;;4.00;;
26536;SDS011;14204;51.262;5.488;2023-08-01T11:49:46;8.68;;;3.42;;
26536;SDS011;14204;51.262;5.488;2023-08-01T11:52:25;8.57;;;4.32;;
26536;SDS011;14204;51.262;5.488;2023-08-01T11:54:52;11.63;;;4.22;;
26536;SDS011;14204;51.262;5.488;2023-08-01T11:57:22;11.55;;;4.07;;
26536;SDS011;14204;51.262;5.488;2023-08-01T11:59:48;9.23;;;4.47;;
26536;SDS011;14204;51.262;5.488;2023-08-01T12:02:25;10.15;;;3.92;;
26536;SDS011;14204;51.262;5.488;2023-08-01T12:04:56;12.00;;;4.60;;
26536;SDS011;14204;51.262;5.488;2023-08-01T12:07:24;10.23;;;3.95;;
26536;SDS011;14204;51.262;5.488;2023-08-01T12:09:57;8.57;;;3.75;;
26536;SDS011;14204;51.262;5.488;2023-08-01T12:12:26;6.65;;;3.53;;
26536;SDS011;14204;51.262;5.488;2023-08-01T12:14:53;9.57;;;4.22;;
26536;SDS011;14204;51.262;5.488;2023-08-01T12:17:19;8.40;;;3.50;;
26536;SDS011;14204;51.262;5.488;2023-08-01T12:19:45;5.63;;;3.25;;
26536;SDS011;14204;51.262;5.488;2023-08-01T12:22:11;7.13;;;3.30;;
26536;SDS011;14204;51.262;5.488;2023-08-01T12:24:38;9.25;;;3.90;;
26536;SDS011;14204;51.262;5.488;2023-08-01T12:27:05;6.70;;;3.30;;
26536;SDS011;14204;51.262;5.488;2023-08-01T12:29:32;11.10;;;3.47;;
26536;SDS011;14204;51.262;5.488;2023-08-01T12:31:57;6.15;;;3.22;;
26536;SDS011;14204;51.262;5.488;2023-08-01T12:34:23;14.13;;;3.90;;
26536;SDS011;14204;51.262;5.488;2023-08-01T12:36:49;264.70;;;33.80;;
26536;SDS011;14204;51.262;5.488;2023-08-01T12:39:14;8.90;;;2.83;;
26536;SDS011;14204;51.262;5.488;2023-08-01T12:41:40;146.75;;;20.13;;
26536;SDS011;14204;51.262;5.488;2023-08-01T12:44:05;8.05;;;3.03;;
26536;SDS011;14204;51.262;5.488;2023-08-01T12:46:31;5.80;;;2.60;;
26536;SDS011;14204;51.262;5.488;2023-08-01T12:48:57;6.18;;;2.72;;
26536;SDS011;14204;51.262;5.488;2023-08-01T12:51:23;7.47;;;3.20;;
26536;SDS011;14204;51.262;5.488;2023-08-01T12:53:48;12.07;;;3.28;;
26536;SDS011;14204;51.262;5.488;2023-08-01T12:56:14;9.27;;;2.92;;
26536;SDS011;14204;51.262;5.488;2023-08-01T12:58:40;5.95;;;2.63;;
26536;SDS011;14204;51.262;5.488;2023-08-01T13:01:06;8.15;;;2.97;;
26536;SDS011;14204;51.262;5.488;2023-08-01T13:03:32;8.15;;;2.90;;
26536;SDS011;14204;51.262;5.488;2023-08-01T13:05:58;10.55;;;2.95;;
26536;SDS011;14204;51.262;5.488;2023-08-01T13:08:24;7.28;;;2.60;;
26536;SDS011;14204;51.262;5.488;2023-08-01T13:10:50;7.90;;;2.58;;
26536;SDS011;14204;51.262;5.488;2023-08-01T13:13:16;7.68;;;2.58;;
26536;SDS011;14204;51.262;5.488;2023-08-01T13:15:42;6.38;;;2.05;;
26536;SDS011;14204;51.262;5.488;2023-08-01T13:18:08;7.28;;;2.17;;
26536;SDS011;14204;51.262;5.488;2023-08-01T13:20:35;5.50;;;1.67;;
26536;SDS011;14204;51.262;5.488;2023-08-01T13:23:01;4.47;;;1.60;;
26536;SDS011;14204;51.262;5.488;2023-08-01T13:25:28;4.35;;;2.03;;
26536;SDS011;14204;51.262;5.488;2023-08-01T13:27:54;4.55;;;1.77;;
26536;SDS011;14204;51.262;5.488;2023-08-01T13:30:19;6.93;;;2.08;;
26536;SDS011;14204;51.262;5.488;2023-08-01T13:32:46;7.10;;;2.25;;
26536;SDS011;14204;51.262;5.488;2023-08-01T13:35:11;6.35;;;2.33;;
26536;SDS011;14204;51.262;5.488;2023-08-01T13:37:38;5.15;;;2.17;;
26536;SDS011;14204;51.262;5.488;2023-08-01T13:40:04;4.80;;;2.00;;
26536;SDS011;14204;51.262;5.488;2023-08-01T13:42:30;5.57;;;2.00;;
26536;SDS011;14204;51.262;5.488;2023-08-01T13:44:56;9.20;;;2.45;;
26536;SDS011;14204;51.262;5.488;2023-08-01T13:47:22;6.18;;;1.95;;
26536;SDS011;14204;51.262;5.488;2023-08-01T13:49:48;4.90;;;1.88;;
26536;SDS011;14204;51.262;5.488;2023-08-01T13:52:14;6.95;;;2.30;;
26536;SDS011;14204;51.262;5.488;2023-08-01T13:54:39;3.22;;;1.60;;
26536;SDS011;14204;51.262;5.488;2023-08-01T13:57:05;8.73;;;1.73;;
26536;SDS011;14204;51.262;5.488;2023-08-01T13:59:31;6.28;;;1.77;;
26536;SDS011;14204;51.262;5.488;2023-08-01T14:01:57;4.97;;;2.13;;
26536;SDS011;14204;51.262;5.488;2023-08-01T14:04:23;7.45;;;2.30;;
26536;SDS011;14204;51.262;5.488;2023-08-01T14:06:48;8.73;;;2.90;;
26536;SDS011;14204;51.262;5.488;2023-08-01T14:09:14;13.15;;;2.83;;
26536;SDS011;14204;51.262;5.488;2023-08-01T14:11:40;8.73;;;2.50;;
26536;SDS011;14204;51.262;5.488;2023-08-01T14:14:06;9.48;;;2.33;;
26536;SDS011;14204;51.262;5.488;2023-08-01T14:16:31;6.00;;;1.90;;
26536;SDS011;14204;51.262;5.488;2023-08-01T14:19:00;7.10;;;2.40;;
26536;SDS011;14204;51.262;5.488;2023-08-01T14:21:26;9.45;;;2.88;;
26536;SDS011;14204;51.262;5.488;2023-08-01T14:23:52;8.35;;;2.72;;
26536;SDS011;14204;51.262;5.488;2023-08-01T14:26:18;7.55;;;2.72;;
26536;SDS011;14204;51.262;5.488;2023-08-01T14:28:44;8.88;;;2.38;;
26536;SDS011;14204;51.262;5.488;2023-08-01T14:31:11;230.65;;;27.90;;
26536;SDS011;14204;51.262;5.488;2023-08-01T14:33:36;8.13;;;2.97;;
26536;SDS011;14204;51.262;5.488;2023-08-01T14:36:02;6.72;;;2.00;;
26536;SDS011;14204;51.262;5.488;2023-08-01T14:38:33;7.68;;;2.30;;